createdAt,value
2019-04-14T00:00:12.037Z,63.31
2019-04-14T00:01:12.989Z,63.51
2019-04-14T00:02:11.995Z,63.31
2019-04-14T00:03:12.979Z,63.41
2019-04-14T00:04:11.960Z,63.31
2019-04-14T00:05:12.511Z,63.31
2019-04-14T00:06:11.987Z,63.62
2019-04-14T00:07:12.215Z,63.31
2019-04-14T00:08:11.885Z,63.62
2019-04-14T00:09:11.894Z,63.51
2019-04-14T00:10:11.933Z,63.41
2019-04-14T00:11:12.556Z,63.85
2019-04-14T00:12:12.140Z,63.41
2019-04-14T00:13:13.090Z,63.31
2019-04-14T00:14:11.864Z,63.31
2019-04-14T00:15:21.179Z,63.72
2019-04-14T00:16:14.182Z,63.75
2019-04-14T00:17:12.903Z,63.41
2019-04-14T00:18:11.880Z,63.51
2019-04-14T00:19:12.839Z,63.51
2019-04-14T00:20:12.053Z,63.23
2019-04-14T00:21:12.880Z,63.31
2019-04-14T00:22:11.769Z,63.20
2019-04-14T00:23:12.984Z,63.23
2019-04-14T00:24:11.773Z,63.51
2019-04-14T00:25:12.925Z,63.41
2019-04-14T00:26:11.692Z,63.31
2019-04-14T00:27:12.827Z,64.14
2019-04-14T00:28:11.743Z,63.82
2019-04-14T00:29:11.655Z,63.93
2019-04-14T00:30:11.887Z,64.14
2019-04-14T00:31:11.627Z,63.82
2019-04-14T00:32:11.743Z,63.82
2019-04-14T00:33:12.693Z,63.96
2019-04-14T00:34:11.608Z,63.82
2019-04-14T00:35:12.462Z,63.72
2019-04-14T00:36:11.591Z,63.85
2019-04-14T00:37:12.088Z,63.72
2019-04-14T00:38:11.550Z,63.72
2019-04-14T00:39:11.798Z,63.62
2019-04-14T00:40:12.799Z,63.85
2019-04-14T00:41:11.655Z,64.34
2019-04-14T00:42:12.594Z,63.51
2019-04-14T00:43:11.541Z,64.69
2019-04-14T00:44:12.441Z,64.45
2019-04-14T00:45:11.479Z,64.86
2019-04-14T00:46:12.484Z,64.48
2019-04-14T00:47:11.523Z,64.65
2019-04-14T00:48:15.770Z,64.97
2019-04-14T00:49:13.505Z,65.20
2019-04-14T00:50:12.453Z,64.89
2019-04-14T00:51:11.424Z,64.97
2019-04-14T00:52:12.497Z,65.00
2019-04-14T00:53:12.137Z,64.89
2019-04-14T00:54:11.382Z,65.31
2019-04-14T00:55:11.854Z,65.38
2019-04-14T00:56:11.374Z,65.38
2019-04-14T00:57:11.595Z,65.83
2019-04-14T00:58:11.334Z,65.52
2019-04-14T00:59:11.440Z,65.00
2019-04-14T01:00:12.691Z,65.72
2019-04-14T01:01:11.297Z,65.72
2019-04-14T01:02:12.219Z,65.72
2019-04-14T01:03:11.363Z,65.83
2019-04-14T01:04:12.214Z,65.41
2019-04-14T01:05:11.272Z,66.35
2019-04-14T01:06:12.227Z,66.44
2019-04-14T01:07:11.265Z,67.17
2019-04-14T01:08:11.992Z,66.96
2019-04-14T01:09:11.205Z,66.65
2019-04-14T01:10:11.197Z,67.48
2019-04-14T01:11:11.735Z,66.75
2019-04-14T01:12:11.231Z,67.58
2019-04-14T01:13:12.609Z,67.58
2019-04-14T01:14:11.165Z,68.41
2019-04-14T01:15:11.534Z,68.31
2019-04-14T01:16:15.534Z,68.73
2019-04-14T01:17:13.336Z,68.73
2019-04-14T01:18:12.443Z,68.41
2019-04-14T01:19:11.309Z,69.04
2019-04-14T01:20:12.394Z,69.24
2019-04-14T01:21:11.099Z,69.66
2019-04-14T01:22:11.988Z,70.07
2019-04-14T01:23:11.102Z,71.01
2019-04-14T01:24:12.054Z,71.22
2019-04-14T01:25:11.038Z,71.14
2019-04-14T01:26:11.778Z,71.32
2019-04-14T01:27:11.034Z,72.15
2019-04-14T01:28:11.333Z,72.70
2019-04-14T01:29:12.203Z,72.46
2019-04-14T01:30:11.242Z,72.98
2019-04-14T01:31:11.953Z,72.56
2019-04-14T01:32:11.224Z,73.49
2019-04-14T01:33:11.883Z,73.74
2019-04-14T01:34:10.939Z,74.15
2019-04-14T01:35:11.739Z,74.15
2019-04-14T01:36:10.911Z,74.36
2019-04-14T01:37:11.547Z,74.67
2019-04-14T01:38:10.904Z,74.46
2019-04-14T01:39:11.147Z,75.09
2019-04-14T01:40:11.986Z,74.88
2019-04-14T01:41:10.857Z,74.67
2019-04-14T01:42:11.650Z,74.98
2019-04-14T01:43:10.852Z,75.09
2019-04-14T01:44:11.239Z,75.19
2019-04-14T01:45:12.091Z,75.50
2019-04-14T01:46:17.763Z,75.50
2019-04-14T01:47:11.801Z,75.92
2019-04-14T01:48:10.815Z,76.43
2019-04-14T01:49:11.532Z,76.33
2019-04-14T01:50:10.757Z,76.23
2019-04-14T01:51:11.308Z,75.81
2019-04-14T01:52:10.735Z,76.33
2019-04-14T01:53:11.860Z,76.26
2019-04-14T01:54:10.801Z,75.92
2019-04-14T01:55:11.211Z,76.75
2019-04-14T01:56:10.708Z,75.71
2019-04-14T01:57:11.039Z,76.23
2019-04-14T01:58:10.659Z,76.23
2019-04-14T01:59:10.816Z,75.92
2019-04-14T02:00:10.660Z,76.43
2019-04-14T02:01:10.650Z,76.43
2019-04-14T02:02:11.814Z,76.12
2019-04-14T02:03:10.736Z,75.92
2019-04-14T02:04:11.653Z,76.85
2019-04-14T02:05:10.590Z,76.64
2019-04-14T02:06:11.414Z,77.16
2019-04-14T02:07:10.592Z,77.37
2019-04-14T02:08:11.194Z,77.68
2019-04-14T02:09:11.904Z,77.26
2019-04-14T02:10:10.734Z,78.03
2019-04-14T02:11:11.611Z,78.09
2019-04-14T02:12:10.609Z,78.03
2019-04-14T02:13:11.478Z,78.55
2019-04-14T02:14:10.519Z,78.75
2019-04-14T02:15:11.298Z,79.17
2019-04-14T02:16:18.860Z,79.17
2019-04-14T02:17:11.465Z,79.17
2019-04-14T02:18:10.457Z,79.58
2019-04-14T02:19:10.954Z,79.58
2019-04-14T02:20:10.438Z,79.90
2019-04-14T02:21:10.771Z,79.79
2019-04-14T02:22:11.586Z,80.00
2019-04-14T02:23:10.455Z,80.10
2019-04-14T02:24:11.354Z,79.69
2019-04-14T02:25:10.377Z,80.21
2019-04-14T02:26:11.221Z,80.52
2019-04-14T02:27:10.357Z,80.73
2019-04-14T02:28:11.228Z,80.62
2019-04-14T02:29:10.377Z,81.56
2019-04-14T02:30:15.212Z,81.35
2019-04-14T02:31:26.437Z,80.76
2019-04-14T02:33:40.903Z,81.97
2019-04-14T02:35:47.202Z,81.70
2019-04-14T02:36:41.712Z,81.80
2019-04-14T02:37:49.182Z,82.63
2019-04-14T02:38:50.264Z,82.28
2019-04-14T02:39:39.084Z,82.32
2019-04-14T02:41:02.763Z,82.07
2019-04-14T02:41:59.937Z,82.32
2019-04-14T02:43:38.071Z,82.53
2019-04-14T02:44:36.429Z,82.73
2019-04-14T02:48:47.675Z,82.73
2019-04-14T02:49:44.581Z,82.63
2019-04-14T02:50:30.530Z,82.84
2019-04-14T02:51:33.578Z,82.94
2019-04-14T02:52:35.766Z,82.53
2019-04-14T02:53:42.734Z,82.63
2019-04-14T02:54:45.680Z,83.36
2019-04-14T02:55:42.543Z,83.25
2019-04-14T02:56:43.372Z,83.29
2019-04-14T02:59:34.162Z,83.81
2019-04-14T03:01:48.695Z,83.81
2019-04-14T03:04:41.525Z,83.91
2019-04-14T03:05:49.575Z,84.33
2019-04-14T03:06:35.341Z,85.05
2019-04-14T03:08:48.553Z,84.95
2019-04-14T03:09:45.445Z,84.74
2019-04-14T03:11:37.845Z,84.74
2019-04-14T03:13:35.276Z,84.84
2019-04-14T03:14:39.873Z,85.16
2019-04-14T03:15:39.796Z,85.30
2019-04-14T03:16:44.774Z,84.78
2019-04-14T03:17:38.327Z,85.16
2019-04-14T03:19:44.497Z,84.74
2019-04-14T03:20:37.266Z,85.30
2019-04-14T03:21:34.379Z,85.41
2019-04-14T03:22:37.392Z,85.30
2019-04-14T03:24:32.832Z,85.41
2019-04-14T03:25:27.687Z,85.57
2019-04-14T03:26:33.998Z,85.82
2019-04-14T03:27:40.426Z,85.93
2019-04-14T03:29:35.835Z,86.03
2019-04-14T03:30:46.075Z,85.82
2019-04-14T03:33:13.617Z,86.24
2019-04-14T03:34:42.241Z,86.13
2019-04-14T03:37:45.294Z,86.03
2019-04-14T03:38:40.248Z,86.34
2019-04-14T03:39:44.348Z,86.34
2019-04-14T03:42:44.823Z,86.44
2019-04-14T03:43:39.447Z,86.44
2019-04-14T03:44:41.491Z,86.65
2019-04-14T03:45:43.268Z,86.55
2019-04-14T03:47:34.766Z,86.76
2019-04-14T03:49:37.275Z,86.65
2019-04-14T03:50:41.912Z,86.65
2019-04-14T03:51:52.478Z,86.76
2019-04-14T03:52:37.595Z,86.44
2019-04-14T03:54:27.364Z,87.07
2019-04-14T03:55:25.109Z,87.38
2019-04-14T03:56:13.795Z,86.76
2019-04-14T03:57:10.386Z,87.07
2019-04-14T03:58:11.463Z,87.07
2019-04-14T03:59:10.534Z,86.96
2019-04-14T04:00:09.603Z,86.55
2019-04-14T04:01:10.453Z,86.34
2019-04-14T04:02:09.678Z,86.65
2019-04-14T04:03:10.538Z,86.34
2019-04-14T04:04:09.670Z,86.34
2019-04-14T04:05:09.283Z,86.44
2019-04-14T04:06:09.696Z,86.55
2019-04-14T04:07:10.227Z,86.34
2019-04-14T04:08:09.381Z,86.96
2019-04-14T04:09:10.345Z,87.07
2019-04-14T04:10:09.416Z,86.76
2019-04-14T04:11:10.459Z,86.76
2019-04-14T04:12:09.621Z,86.13
2019-04-14T04:13:10.453Z,86.96
2019-04-14T04:14:09.693Z,86.76
2019-04-14T04:15:10.393Z,86.76
2019-04-14T04:16:09.350Z,86.55
2019-04-14T04:17:10.150Z,86.65
2019-04-14T04:18:09.195Z,86.65
2019-04-14T04:19:13.504Z,86.55
2019-04-14T04:20:11.013Z,86.65
2019-04-14T04:21:09.530Z,86.55
2019-04-14T04:22:09.157Z,86.34
2019-04-14T04:23:09.563Z,86.65
2019-04-14T04:24:09.078Z,86.86
2019-04-14T04:25:09.415Z,86.34
2019-04-14T04:26:09.033Z,86.44
2019-04-14T04:27:09.040Z,86.34
2019-04-14T04:28:10.103Z,86.44
2019-04-14T04:29:09.195Z,86.65
2019-04-14T04:30:10.116Z,86.44
2019-04-14T04:31:08.984Z,86.65
2019-04-14T04:32:09.971Z,86.69
2019-04-14T04:33:08.962Z,86.59
2019-04-14T04:34:09.826Z,87.38
2019-04-14T04:35:08.950Z,87.07
2019-04-14T04:36:09.520Z,87.07
2019-04-14T04:37:08.934Z,87.27
2019-04-14T04:38:09.541Z,87.38
2019-04-14T04:39:08.910Z,86.76
2019-04-14T04:40:09.375Z,86.65
2019-04-14T04:41:10.026Z,87.11
2019-04-14T04:42:09.193Z,87.17
2019-04-14T04:43:10.079Z,86.44
2019-04-14T04:44:09.411Z,86.65
2019-04-14T04:45:08.845Z,86.55
2019-04-14T04:46:09.138Z,86.76
2019-04-14T04:47:09.892Z,87.27
2019-04-14T04:48:08.975Z,86.55
2019-04-14T04:49:15.144Z,86.76
2019-04-14T04:50:10.755Z,87.27
2019-04-14T04:51:09.300Z,87.17
2019-04-14T04:52:11.446Z,87.27
2019-04-14T04:53:09.096Z,87.27
2019-04-14T04:54:08.744Z,87.27
2019-04-14T04:55:08.913Z,87.27
2019-04-14T04:56:08.720Z,86.44
2019-04-14T04:57:08.940Z,87.07
2019-04-14T04:58:10.003Z,86.76
2019-04-14T04:59:09.701Z,86.65
2019-04-14T05:00:09.250Z,87.27
2019-04-14T05:01:09.865Z,87.38
2019-04-14T05:02:09.050Z,87.48
2019-04-14T05:03:08.642Z,87.17
2019-04-14T05:04:09.055Z,87.07
2019-04-14T05:05:09.809Z,87.17
2019-04-14T05:06:09.163Z,87.17
2019-04-14T05:07:09.753Z,87.27
2019-04-14T05:08:08.740Z,87.38
2019-04-14T05:09:09.853Z,87.27
2019-04-14T05:10:08.895Z,87.69
2019-04-14T05:11:09.659Z,87.59
2019-04-14T05:12:08.996Z,87.69
2019-04-14T05:13:09.414Z,87.38
2019-04-14T05:14:08.784Z,86.96
2019-04-14T05:15:09.432Z,87.48
2019-04-14T05:16:08.567Z,88.10
2019-04-14T05:17:08.477Z,88.00
2019-04-14T05:18:09.144Z,87.59
2019-04-14T05:19:17.205Z,87.69
2019-04-14T05:20:09.622Z,87.69
2019-04-14T05:21:08.435Z,87.59
2019-04-14T05:22:09.255Z,87.48
2019-04-14T05:23:08.427Z,87.59
2019-04-14T05:24:09.271Z,87.59
2019-04-14T05:25:08.393Z,87.90
2019-04-14T05:26:09.186Z,87.90
2019-04-14T05:27:08.371Z,87.90
2019-04-14T05:28:09.105Z,87.79
2019-04-14T05:29:08.371Z,87.90
2019-04-14T05:30:09.002Z,88.31
2019-04-14T05:31:09.663Z,87.79
2019-04-14T05:32:08.789Z,87.90
2019-04-14T05:33:09.515Z,88.00
2019-04-14T05:34:08.641Z,88.00
2019-04-14T05:35:09.510Z,87.90
2019-04-14T05:36:08.542Z,87.90
2019-04-14T05:37:09.261Z,87.79
2019-04-14T05:38:08.502Z,87.79
2019-04-14T05:39:08.932Z,88.00
2019-04-14T05:40:08.263Z,88.00
2019-04-14T05:41:09.109Z,87.90
2019-04-14T05:42:14.044Z,88.10
2019-04-14T05:43:09.224Z,87.79
2019-04-14T05:44:08.247Z,88.10
2019-04-14T05:45:08.763Z,88.10
2019-04-14T05:46:08.161Z,88.00
2019-04-14T05:47:08.697Z,87.79
2019-04-14T05:48:08.131Z,88.31
2019-04-14T05:49:08.581Z,88.10
2019-04-14T05:50:09.376Z,88.21
2019-04-14T05:51:08.533Z,88.31
2019-04-14T05:52:08.116Z,88.31
2019-04-14T05:53:08.638Z,88.62
2019-04-14T05:54:08.108Z,88.62
2019-04-14T05:55:08.781Z,88.52
2019-04-14T05:56:08.061Z,88.42
2019-04-14T05:57:08.792Z,88.31
2019-04-14T05:58:08.082Z,88.52
2019-04-14T05:59:08.875Z,88.31
2019-04-14T06:00:08.225Z,87.90
2019-04-14T06:01:08.975Z,88.00
2019-04-14T06:02:07.992Z,88.00
2019-04-14T06:03:08.143Z,88.00
2019-04-14T06:04:09.254Z,88.04
2019-04-14T06:05:09.221Z,88.35
2019-04-14T06:06:07.928Z,88.35
2019-04-14T06:07:08.786Z,88.31
2019-04-14T06:08:07.924Z,88.31
2019-04-14T06:09:07.932Z,88.52
2019-04-14T06:10:07.910Z,88.62
2019-04-14T06:11:07.887Z,88.62
2019-04-14T06:12:07.910Z,88.21
2019-04-14T06:13:07.860Z,88.62
2019-04-14T06:14:07.884Z,88.77
2019-04-14T06:15:07.846Z,88.31
2019-04-14T06:16:07.851Z,88.62
2019-04-14T06:17:07.815Z,88.56
2019-04-14T06:18:07.844Z,88.21
2019-04-14T06:19:07.840Z,88.35
2019-04-14T06:20:08.396Z,88.31
2019-04-14T06:21:07.790Z,88.31
2019-04-14T06:22:07.757Z,89.25
2019-04-14T06:23:07.748Z,88.84
2019-04-14T06:24:07.770Z,89.25
2019-04-14T06:25:07.763Z,88.52
2019-04-14T06:26:07.732Z,88.73
2019-04-14T06:27:07.731Z,88.73
2019-04-14T06:28:07.688Z,88.31
2019-04-14T06:29:07.704Z,88.73
2019-04-14T06:30:07.706Z,88.84
2019-04-14T06:31:08.949Z,88.73
2019-04-14T06:32:07.673Z,88.84
2019-04-14T06:33:07.647Z,88.73
2019-04-14T06:34:07.625Z,89.04
2019-04-14T06:35:07.636Z,89.15
2019-04-14T06:36:07.613Z,89.04
2019-04-14T06:37:07.611Z,89.08
2019-04-14T06:38:07.591Z,88.77
2019-04-14T06:39:07.572Z,89.25
2019-04-14T06:40:07.603Z,89.15
2019-04-14T06:41:07.565Z,89.67
2019-04-14T06:42:07.557Z,89.67
2019-04-14T06:43:07.548Z,89.87
2019-04-14T06:44:07.538Z,89.25
2019-04-14T06:45:07.526Z,88.73
2019-04-14T06:46:07.503Z,88.94
2019-04-14T06:47:07.518Z,88.62
2019-04-14T06:48:07.485Z,89.25
2019-04-14T06:49:07.467Z,89.11
2019-04-14T06:50:07.466Z,88.69
2019-04-14T06:51:07.437Z,88.69
2019-04-14T06:52:07.421Z,89.42
2019-04-14T06:53:07.423Z,90.08
2019-04-14T06:54:07.405Z,90.14
2019-04-14T06:55:07.427Z,89.73
2019-04-14T06:56:07.383Z,89.83
2019-04-14T06:57:07.384Z,89.67
2019-04-14T06:58:07.357Z,89.62
2019-04-14T06:59:07.367Z,89.73
2019-04-14T07:00:07.362Z,90.04
2019-04-14T07:01:07.361Z,89.83
2019-04-14T07:02:08.658Z,89.83
2019-04-14T07:03:07.323Z,89.87
2019-04-14T07:04:07.291Z,90.25
2019-04-14T07:05:07.295Z,90.04
2019-04-14T07:06:07.327Z,89.83
2019-04-14T07:07:07.321Z,89.42
2019-04-14T07:08:07.260Z,89.00
2019-04-14T07:09:07.235Z,89.21
2019-04-14T07:10:07.264Z,89.52
2019-04-14T07:11:07.209Z,89.73
2019-04-14T07:12:07.300Z,89.21
2019-04-14T07:13:07.227Z,89.21
2019-04-14T07:14:07.184Z,89.73
2019-04-14T07:15:07.171Z,89.83
2019-04-14T07:16:07.176Z,89.94
2019-04-14T07:17:07.146Z,90.00
2019-04-14T07:18:07.171Z,89.73
2019-04-14T07:19:07.130Z,89.73
2019-04-14T07:20:07.121Z,89.79
2019-04-14T07:21:07.135Z,89.83
2019-04-14T07:22:07.100Z,90.00
2019-04-14T07:23:07.090Z,89.27
2019-04-14T07:24:07.097Z,89.58
2019-04-14T07:25:07.067Z,89.79
2019-04-14T07:26:07.064Z,89.48
2019-04-14T07:27:07.094Z,89.17
2019-04-14T07:28:07.031Z,89.27
2019-04-14T07:29:07.016Z,89.27
2019-04-14T07:30:07.019Z,89.79
2019-04-14T07:31:07.025Z,89.48
2019-04-14T07:32:06.989Z,89.79
2019-04-14T07:33:06.993Z,90.20
2019-04-14T07:34:06.962Z,90.41
2019-04-14T07:35:06.950Z,90.69
2019-04-14T07:36:06.982Z,90.06
2019-04-14T07:37:06.932Z,90.06
2019-04-14T07:38:06.923Z,89.44
2019-04-14T07:39:06.916Z,89.54
2019-04-14T07:40:06.940Z,89.65
2019-04-14T07:41:06.951Z,89.75
2019-04-14T07:42:06.894Z,89.44
2019-04-14T07:43:06.864Z,89.50
2019-04-14T07:44:06.871Z,89.03
2019-04-14T07:45:06.859Z,88.51
2019-04-14T07:46:06.866Z,88.46
2019-04-14T07:47:06.844Z,88.51
2019-04-14T07:48:06.822Z,88.82
2019-04-14T07:49:06.802Z,88.46
2019-04-14T07:50:14.440Z,88.46
2019-04-14T07:51:07.783Z,89.54
2019-04-14T07:52:06.783Z,89.50
2019-04-14T07:53:06.800Z,88.57
2019-04-14T07:54:06.756Z,88.46
2019-04-14T07:55:06.770Z,89.19
2019-04-14T07:56:06.716Z,88.88
2019-04-14T07:57:06.741Z,89.09
2019-04-14T07:58:06.691Z,88.88
2019-04-14T07:59:06.698Z,88.78
2019-04-14T08:00:06.680Z,89.09
2019-04-14T08:01:06.669Z,88.46
2019-04-14T08:02:06.677Z,88.78
2019-04-14T08:03:06.655Z,88.67
2019-04-14T08:04:06.635Z,89.19
2019-04-14T08:05:06.631Z,89.29
2019-04-14T08:06:06.617Z,88.88
2019-04-14T08:07:06.647Z,88.57
2019-04-14T08:08:06.609Z,88.78
2019-04-14T08:09:06.598Z,88.57
2019-04-14T08:10:06.566Z,88.57
2019-04-14T08:11:06.571Z,88.98
2019-04-14T08:12:06.589Z,88.67
2019-04-14T08:13:06.543Z,88.88
2019-04-14T08:14:06.534Z,89.09
2019-04-14T08:15:06.517Z,89.50
2019-04-14T08:16:06.502Z,89.92
2019-04-14T08:17:06.505Z,88.88
2019-04-14T08:18:06.488Z,88.67
2019-04-14T08:19:06.484Z,88.67
2019-04-14T08:20:06.472Z,88.67
2019-04-14T08:21:06.453Z,88.46
2019-04-14T08:22:06.496Z,88.88
2019-04-14T08:23:06.441Z,88.36
2019-04-14T08:24:06.421Z,88.98
2019-04-14T08:25:06.401Z,89.67
2019-04-14T08:26:06.390Z,89.61
2019-04-14T08:27:06.394Z,89.29
2019-04-14T08:28:06.384Z,88.98
2019-04-14T08:29:06.371Z,88.98
2019-04-14T08:30:06.381Z,88.98
2019-04-14T08:31:06.350Z,89.40
2019-04-14T08:32:06.372Z,90.02
2019-04-14T08:33:06.315Z,89.04
2019-04-14T08:34:06.321Z,89.81
2019-04-14T08:35:06.315Z,89.56
2019-04-14T08:36:06.306Z,89.98
2019-04-14T08:37:06.288Z,89.25
2019-04-14T08:38:06.366Z,89.25
2019-04-14T08:39:06.263Z,89.04
2019-04-14T08:40:06.241Z,88.53
2019-04-14T08:41:06.238Z,88.32
2019-04-14T08:42:06.220Z,88.21
2019-04-14T08:43:06.223Z,88.73
2019-04-14T08:44:06.219Z,88.84
2019-04-14T08:45:06.180Z,88.48
2019-04-14T08:46:06.180Z,88.69
2019-04-14T08:47:06.184Z,88.90
2019-04-14T08:48:06.169Z,88.90
2019-04-14T08:49:06.130Z,88.07
2019-04-14T08:50:06.143Z,88.07
2019-04-14T08:51:06.128Z,87.87
2019-04-14T08:52:06.116Z,88.39
2019-04-14T08:53:06.155Z,88.28
2019-04-14T08:54:06.078Z,87.87
2019-04-14T08:55:06.069Z,88.07
2019-04-14T08:56:06.066Z,88.07
2019-04-14T08:57:06.071Z,88.48
2019-04-14T08:58:06.072Z,88.45
2019-04-14T08:59:06.042Z,88.48
2019-04-14T09:00:06.084Z,88.59
2019-04-14T09:01:06.024Z,89.00
2019-04-14T09:02:06.001Z,88.65
2019-04-14T09:03:06.017Z,88.45
2019-04-14T09:04:05.994Z,88.76
2019-04-14T09:05:05.969Z,87.93
2019-04-14T09:06:05.946Z,87.57
2019-04-14T09:07:05.932Z,87.72
2019-04-14T09:08:05.940Z,87.37
2019-04-14T09:09:07.387Z,87.41
2019-04-14T09:10:05.917Z,87.37
2019-04-14T09:11:05.901Z,87.47
2019-04-14T09:12:15.326Z,87.57
2019-04-14T09:13:06.902Z,87.68
2019-04-14T09:14:05.859Z,87.68
2019-04-14T09:15:05.859Z,87.88
2019-04-14T09:16:05.867Z,87.37
2019-04-14T09:17:05.819Z,87.47
2019-04-14T09:18:05.827Z,87.64
2019-04-14T09:19:07.982Z,87.16
2019-04-14T09:20:05.801Z,86.71
2019-04-14T09:21:05.800Z,86.54
2019-04-14T09:22:05.768Z,86.81
2019-04-14T09:23:05.770Z,86.23
2019-04-14T09:24:05.764Z,86.23
2019-04-14T09:25:05.745Z,85.99
2019-04-14T09:26:05.747Z,86.44
2019-04-14T09:27:05.715Z,86.71
2019-04-14T09:28:05.699Z,86.71
2019-04-14T09:29:05.704Z,87.27
2019-04-14T09:30:05.681Z,86.19
2019-04-14T09:31:05.676Z,85.92
2019-04-14T09:32:05.662Z,85.36
2019-04-14T09:33:05.655Z,85.61
2019-04-14T09:34:05.697Z,86.33
2019-04-14T09:35:05.695Z,86.13
2019-04-14T09:36:05.683Z,86.29
2019-04-14T09:37:05.614Z,86.54
2019-04-14T09:38:05.601Z,86.29
2019-04-14T09:39:05.622Z,86.71
2019-04-14T09:40:05.571Z,86.19
2019-04-14T09:41:05.575Z,85.99
2019-04-14T09:42:05.556Z,86.09
2019-04-14T09:43:05.555Z,86.09
2019-04-14T09:44:05.552Z,85.68
2019-04-14T09:45:05.521Z,86.13
2019-04-14T09:46:05.514Z,85.78
2019-04-14T09:47:05.497Z,86.19
2019-04-14T09:48:05.487Z,86.19
2019-04-14T09:49:05.498Z,86.09
2019-04-14T09:50:05.471Z,85.47
2019-04-14T09:51:05.478Z,85.68
2019-04-14T09:52:05.441Z,85.36
2019-04-14T09:53:05.436Z,85.47
2019-04-14T09:54:05.440Z,85.47
2019-04-14T09:55:05.427Z,85.78
2019-04-14T09:56:05.427Z,85.36
2019-04-14T09:57:05.389Z,85.68
2019-04-14T09:58:05.379Z,85.68
2019-04-14T09:59:05.397Z,85.68
2019-04-14T10:00:05.361Z,86.09
2019-04-14T10:01:05.357Z,85.88
2019-04-14T10:02:05.334Z,85.26
2019-04-14T10:03:05.326Z,85.78
2019-04-14T10:04:05.347Z,85.68
2019-04-14T10:05:05.300Z,85.68
2019-04-14T10:06:05.311Z,85.47
2019-04-14T10:07:05.271Z,85.47
2019-04-14T10:08:05.261Z,85.84
2019-04-14T10:09:05.294Z,86.05
2019-04-14T10:10:05.248Z,85.57
2019-04-14T10:11:05.236Z,85.94
2019-04-14T10:12:05.217Z,85.53
2019-04-14T10:13:05.199Z,85.47
2019-04-14T10:14:05.200Z,85.63
2019-04-14T10:15:05.216Z,85.84
2019-04-14T10:16:05.185Z,85.63
2019-04-14T10:17:05.163Z,85.63
2019-04-14T10:18:05.148Z,85.84
2019-04-14T10:19:05.140Z,86.05
2019-04-14T10:20:05.147Z,85.11
2019-04-14T10:21:16.921Z,85.22
2019-04-14T10:22:06.113Z,85.78
2019-04-14T10:23:05.096Z,85.88
2019-04-14T10:24:05.083Z,85.53
2019-04-14T10:25:05.129Z,85.63
2019-04-14T10:26:05.065Z,85.63
2019-04-14T10:27:05.063Z,85.57
2019-04-14T10:28:05.052Z,85.36
2019-04-14T10:29:05.038Z,85.63
2019-04-14T10:30:05.049Z,85.63
2019-04-14T10:31:05.005Z,85.63
2019-04-14T10:32:05.019Z,85.94
2019-04-14T10:33:04.988Z,85.84
2019-04-14T10:34:04.992Z,86.46
2019-04-14T10:35:04.998Z,86.46
2019-04-14T10:36:04.945Z,86.46
2019-04-14T10:37:04.948Z,86.15
2019-04-14T10:38:05.003Z,85.94
2019-04-14T10:39:04.921Z,86.15
2019-04-14T10:40:06.232Z,86.15
2019-04-14T10:41:04.915Z,86.25
2019-04-14T10:42:04.883Z,86.21
2019-04-14T10:43:04.872Z,86.21
2019-04-14T10:44:04.869Z,85.84
2019-04-14T10:45:04.879Z,86.36
2019-04-14T10:46:04.843Z,86.32
2019-04-14T10:47:04.824Z,86.32
2019-04-14T10:48:04.821Z,86.11
2019-04-14T10:49:04.803Z,86.11
2019-04-14T10:50:04.816Z,86.21
2019-04-14T10:51:04.850Z,86.11
2019-04-14T10:52:04.791Z,86.11
2019-04-14T10:53:04.762Z,85.18
2019-04-14T10:54:04.755Z,85.70
2019-04-14T10:55:04.765Z,85.70
2019-04-14T10:56:04.744Z,86.21
2019-04-14T10:57:04.715Z,85.80
2019-04-14T10:58:04.695Z,85.49
2019-04-14T10:59:04.697Z,85.49
2019-04-14T11:00:04.704Z,86.11
2019-04-14T11:01:04.726Z,86.18
2019-04-14T11:02:04.673Z,86.38
2019-04-14T11:03:04.658Z,86.07
2019-04-14T11:04:04.653Z,85.86
2019-04-14T11:05:04.632Z,86.07
2019-04-14T11:06:04.659Z,85.66
2019-04-14T11:07:04.608Z,85.35
2019-04-14T11:08:04.620Z,85.66
2019-04-14T11:09:04.592Z,85.55
2019-04-14T11:10:04.589Z,86.07
2019-04-14T11:11:04.580Z,85.45
2019-04-14T11:12:04.570Z,85.52
2019-04-14T11:13:04.552Z,85.52
2019-04-14T11:14:04.546Z,85.45
2019-04-14T11:15:04.521Z,85.55
2019-04-14T11:16:04.555Z,85.41
2019-04-14T11:17:04.489Z,85.41
2019-04-14T11:18:04.487Z,85.52
2019-04-14T11:19:04.503Z,85.83
2019-04-14T11:20:04.467Z,85.21
2019-04-14T11:21:04.478Z,85.17
2019-04-14T11:22:04.430Z,85.89
2019-04-14T11:23:04.444Z,85.06
2019-04-14T11:24:04.414Z,84.55
2019-04-14T11:25:04.457Z,84.65
2019-04-14T11:26:04.413Z,84.34
2019-04-14T11:27:04.400Z,84.20
2019-04-14T11:28:04.373Z,83.99
2019-04-14T11:29:04.347Z,84.20
2019-04-14T11:30:04.354Z,84.06
2019-04-14T11:31:04.360Z,83.64
2019-04-14T11:32:04.333Z,83.23
2019-04-14T11:33:04.310Z,83.54
2019-04-14T11:34:04.324Z,83.33
2019-04-14T11:35:04.280Z,83.03
2019-04-14T11:36:04.308Z,82.71
2019-04-14T11:37:04.259Z,82.47
2019-04-14T11:38:04.296Z,82.40
2019-04-14T11:39:04.250Z,82.51
2019-04-14T11:40:04.256Z,82.06
2019-04-14T11:41:04.216Z,82.47
2019-04-14T11:42:04.263Z,82.16
2019-04-14T11:43:04.213Z,81.96
2019-04-14T11:44:04.212Z,81.75
2019-04-14T11:45:04.232Z,81.85
2019-04-14T11:46:04.325Z,81.44
2019-04-14T11:47:04.185Z,82.16
2019-04-14T11:48:04.141Z,82.16
2019-04-14T11:49:04.159Z,81.75
2019-04-14T11:50:04.180Z,81.92
2019-04-14T11:51:04.117Z,81.81
2019-04-14T11:52:04.131Z,81.51
2019-04-14T11:53:04.094Z,81.92
2019-04-14T11:54:04.099Z,81.51
2019-04-14T11:55:04.063Z,79.96
2019-04-14T11:56:04.086Z,79.44
2019-04-14T11:57:04.077Z,80.06
2019-04-14T11:58:04.031Z,79.75
2019-04-14T11:59:04.045Z,80.58
2019-04-14T12:00:04.028Z,80.37
2019-04-14T12:01:03.993Z,80.47
2019-04-14T12:02:04.006Z,81.26
2019-04-14T12:03:04.030Z,80.75
2019-04-14T12:04:03.980Z,81.26
2019-04-14T12:05:03.950Z,81.26
2019-04-14T12:06:03.957Z,80.44
2019-04-14T12:07:04.066Z,80.54
2019-04-14T12:08:03.915Z,79.93
2019-04-14T12:09:03.913Z,79.41
2019-04-14T12:10:03.909Z,79.00
2019-04-14T12:11:03.892Z,78.89
2019-04-14T12:12:03.890Z,79.00
2019-04-14T12:13:03.872Z,78.69
2019-04-14T12:14:03.853Z,77.76
2019-04-14T12:15:03.865Z,77.35
2019-04-14T12:16:03.822Z,77.45
2019-04-14T12:17:03.856Z,76.70
2019-04-14T12:18:03.807Z,76.79
2019-04-14T12:19:03.791Z,77.21
2019-04-14T12:20:03.780Z,76.66
2019-04-14T12:21:03.763Z,75.12
2019-04-14T12:22:08.586Z,75.12
2019-04-14T12:23:04.758Z,75.94
2019-04-14T12:24:03.752Z,75.29
2019-04-14T12:25:03.777Z,75.39
2019-04-14T12:26:05.481Z,75.18
2019-04-14T12:27:03.724Z,75.70
2019-04-14T12:28:04.755Z,75.59
2019-04-14T12:29:05.177Z,73.74
2019-04-14T12:30:03.669Z,73.13
2019-04-14T12:31:04.058Z,73.74
2019-04-14T12:32:03.967Z,73.61
2019-04-14T12:33:03.655Z,74.02
2019-04-14T12:34:03.646Z,74.12
2019-04-14T12:35:03.621Z,73.91
2019-04-14T12:36:03.641Z,74.22
2019-04-14T12:37:03.626Z,73.91
2019-04-14T12:38:03.675Z,73.81
2019-04-14T12:39:03.587Z,73.91
2019-04-14T12:40:04.814Z,73.30
2019-04-14T12:41:04.447Z,73.19
2019-04-14T12:42:03.571Z,73.40
2019-04-14T12:43:03.527Z,73.71
2019-04-14T12:44:03.513Z,73.50
2019-04-14T12:45:03.509Z,73.50
2019-04-14T12:46:06.060Z,73.91
2019-04-14T12:47:03.487Z,73.68
2019-04-14T12:48:03.493Z,73.88
2019-04-14T12:49:03.450Z,73.57
2019-04-14T12:50:03.453Z,73.47
2019-04-14T12:51:03.440Z,73.78
2019-04-14T12:52:03.470Z,72.34
2019-04-14T12:53:03.448Z,71.93
2019-04-14T12:54:03.427Z,72.03
2019-04-14T12:55:03.401Z,72.13
2019-04-14T12:56:03.406Z,72.55
2019-04-14T12:57:03.361Z,71.93
2019-04-14T12:58:03.386Z,73.27
2019-04-14T12:59:03.392Z,72.24
2019-04-14T13:00:03.349Z,72.03
2019-04-14T13:01:03.326Z,72.03
2019-04-14T13:02:03.309Z,71.93
2019-04-14T13:03:03.312Z,71.72
2019-04-14T13:04:03.291Z,72.03
2019-04-14T13:05:03.284Z,71.21
2019-04-14T13:06:03.268Z,71.83
2019-04-14T13:07:03.253Z,71.83
2019-04-14T13:08:03.415Z,71.72
2019-04-14T13:09:03.234Z,71.83
2019-04-14T13:10:03.253Z,71.31
2019-04-14T13:11:03.256Z,71.51
2019-04-14T13:12:03.204Z,71.11
2019-04-14T13:13:03.220Z,71.31
2019-04-14T13:14:03.183Z,70.28
2019-04-14T13:15:03.180Z,70.66
2019-04-14T13:16:03.221Z,70.66
2019-04-14T13:17:03.154Z,70.66
2019-04-14T13:18:03.149Z,70.66